HESH/SSH METAR and TAF weather

Enter ICAO airport designator
Station Type Date Time Source
HESH METAR 2020/12/05 05:00 UTC NOAA

HESH 050500Z 26002KT 9999 FEW020 17/07 Q1015 NOSIG


Station Type Date Time Source
HESH Decoded METAR 2020/12/05 05:00 UTC NOAA

Sharm El Sheikhintl, Egypt (HESH) 27-58N 034-23E
Dec 05, 2020 - 12:00 AM EST / 2020.12.05 0500 UTC
Wind: from the W (260 degrees) at 2 MPH (2 KT):0
Visibility: greater than 7 mile(s):0
Sky conditions: mostly clear
Temperature: 62 F (17 C)
Dew Point: 44 F (7 C)
Relative Humidity: 51%
Pressure (altimeter): 29.97 in. Hg (1015 hPa)
ob: HESH 050500Z 26002KT 9999 FEW020 17/07 Q1015 NOSIG
cycle: 5

Station Type Date Time Source
HESH TAF 2020/12/05 06:06 UTC NOAA

TAF TAF HESH 050500Z 0506/0612 02012KT CAVOK

Example: see airport list